createdAt,value
2022-10-11T00:00:07.098Z,9.23
2022-10-11T00:02:33.736Z,7.03
2022-10-11T00:05:00.405Z,8.87
2022-10-11T00:07:27.094Z,6.57
2022-10-11T00:09:53.835Z,6.60
2022-10-11T00:12:20.437Z,6.63
2022-10-11T00:14:47.047Z,7.50
2022-10-11T00:17:14.451Z,6.47
2022-10-11T00:19:41.189Z,8.77
2022-10-11T00:22:07.849Z,7.83
2022-10-11T00:24:34.471Z,6.60
2022-10-11T00:27:01.082Z,7.43
2022-10-11T00:29:27.783Z,6.17
2022-10-11T00:31:54.457Z,6.57
2022-10-11T00:34:21.134Z,6.70
2022-10-11T00:36:48.660Z,9.33
2022-10-11T00:39:15.361Z,9.97
2022-10-11T00:41:42.244Z,9.30
2022-10-11T00:44:23.985Z,7.80
2022-10-11T00:47:01.870Z,10.20
2022-10-11T00:49:45.248Z,8.87
2022-10-11T00:52:20.489Z,6.50
2022-10-11T00:54:48.903Z,9.63
2022-10-11T00:57:22.636Z,6.73
2022-10-11T00:59:52.303Z,7.63
2022-10-11T01:02:20.490Z,7.43
2022-10-11T01:04:47.382Z,6.90
2022-10-11T01:07:14.098Z,10.07
2022-10-11T01:09:40.723Z,9.33
2022-10-11T01:12:16.901Z,6.60
2022-10-11T01:14:53.599Z,8.43
2022-10-11T01:17:29.419Z,6.77
2022-10-11T01:20:07.739Z,6.30
2022-10-11T01:23:08.579Z,8.37
2022-10-11T01:25:55.658Z,8.43
2022-10-11T01:28:43.905Z,6.27
2022-10-11T01:31:38.513Z,9.93
2022-10-11T01:34:22.255Z,10.27
2022-10-11T01:37:04.929Z,8.40
2022-10-11T01:39:45.870Z,7.23
2022-10-11T01:42:13.527Z,8.70
2022-10-11T01:44:44.716Z,7.67
2022-10-11T01:47:11.341Z,8.10
2022-10-11T01:49:38.055Z,11.33
2022-10-11T01:52:06.920Z,9.57
2022-10-11T01:55:08.788Z,10.60
2022-10-11T01:57:44.562Z,10.27
2022-10-11T02:00:14.158Z,9.23
2022-10-11T02:03:02.095Z,6.63
2022-10-11T02:05:45.988Z,5.77
2022-10-11T02:08:24.636Z,4.80
2022-10-11T02:11:14.746Z,6.07
2022-10-11T02:13:47.062Z,4.27
2022-10-11T02:16:18.922Z,10.97
2022-10-11T02:18:52.303Z,6.97
2022-10-11T02:21:22.703Z,5.63
2022-10-11T02:23:59.601Z,8.47
2022-10-11T02:26:30.832Z,42.17
2022-10-11T02:29:01.249Z,5.27
2022-10-11T02:31:30.481Z,6.43
2022-10-11T02:34:06.131Z,6.07
2022-10-11T02:36:55.431Z,6.70
2022-10-11T02:39:33.564Z,3.80
2022-10-11T02:42:04.982Z,4.20
2022-10-11T02:44:46.468Z,5.50
2022-10-11T02:47:14.043Z,5.43
2022-10-11T02:49:40.797Z,7.80
2022-10-11T02:52:07.617Z,6.53
2022-10-11T02:54:34.479Z,5.13
2022-10-11T02:57:01.167Z,5.57
2022-10-11T02:59:27.863Z,6.30
2022-10-11T03:01:54.945Z,10.50
2022-10-11T03:04:21.611Z,11.40
2022-10-11T03:06:48.320Z,14.70
2022-10-11T03:09:14.923Z,17.00
2022-10-11T03:11:41.553Z,13.30
2022-10-11T03:14:08.228Z,11.30
2022-10-11T03:16:34.839Z,17.30
2022-10-11T03:19:01.469Z,14.43
2022-10-11T03:21:28.103Z,17.10
2022-10-11T03:23:54.699Z,20.60
2022-10-11T03:26:21.375Z,17.13
2022-10-11T03:28:48.064Z,14.67
2022-10-11T03:31:14.766Z,19.47
2022-10-11T03:33:41.336Z,17.90
2022-10-11T03:36:09.087Z,18.37
2022-10-11T03:38:35.918Z,17.00
2022-10-11T03:41:02.543Z,15.93
2022-10-11T03:43:29.133Z,13.83
2022-10-11T03:45:55.837Z,20.43
2022-10-11T03:48:22.516Z,15.30
2022-10-11T03:50:49.576Z,15.53
2022-10-11T03:53:16.251Z,14.87
2022-10-11T03:55:42.969Z,17.73
2022-10-11T03:58:09.782Z,15.73
2022-10-11T04:00:36.715Z,19.43
2022-10-11T04:03:06.332Z,16.30
2022-10-11T04:05:33.194Z,11.10
2022-10-11T04:07:59.911Z,11.57
2022-10-11T04:10:26.510Z,10.13
2022-10-11T04:12:53.106Z,10.33
2022-10-11T04:15:19.787Z,9.77
2022-10-11T04:17:46.437Z,10.07
2022-10-11T04:20:13.076Z,11.63
2022-10-11T04:22:39.960Z,11.60
2022-10-11T04:25:07.648Z,11.87
2022-10-11T04:27:35.071Z,12.60
2022-10-11T04:30:01.832Z,10.03
2022-10-11T04:32:28.522Z,11.10
2022-10-11T04:34:55.224Z,10.93
2022-10-11T04:37:21.854Z,13.73
2022-10-11T04:39:48.480Z,13.50
2022-10-11T04:42:15.222Z,13.20
2022-10-11T04:44:41.923Z,14.07
2022-10-11T04:47:08.634Z,16.33
2022-10-11T04:49:35.234Z,15.03
2022-10-11T04:52:01.847Z,13.83
2022-10-11T04:54:28.508Z,11.17
2022-10-11T04:56:55.202Z,13.07
2022-10-11T04:59:21.819Z,10.03
2022-10-11T05:01:48.522Z,11.47
2022-10-11T05:04:15.227Z,14.47
2022-10-11T05:06:41.839Z,13.70
2022-10-11T05:09:08.576Z,17.80
2022-10-11T05:11:35.179Z,14.80
2022-10-11T05:14:01.790Z,16.10
2022-10-11T05:16:28.391Z,19.87
2022-10-11T05:18:55.070Z,21.77
2022-10-11T05:21:27.137Z,20.57
2022-10-11T05:23:56.141Z,24.27
2022-10-11T05:26:24.478Z,24.93
2022-10-11T05:28:52.221Z,13.70
2022-10-11T05:31:19.503Z,18.20
2022-10-11T05:33:46.297Z,13.27
2022-10-11T05:36:13.144Z,12.00
2022-10-11T05:38:40.062Z,13.97
2022-10-11T05:41:09.016Z,15.77
2022-10-11T05:43:35.919Z,21.83
2022-10-11T05:46:03.116Z,22.37
2022-10-11T05:48:29.949Z,19.97
2022-10-11T05:51:05.960Z,32.43
2022-10-11T05:53:33.051Z,34.37
2022-10-11T05:56:00.014Z,41.87
2022-10-11T05:58:27.255Z,41.80
2022-10-11T06:00:54.651Z,42.03
2022-10-11T06:03:21.340Z,45.27
2022-10-11T06:05:48.029Z,42.73
2022-10-11T06:08:15.749Z,39.43
2022-10-11T06:10:42.375Z,37.83
2022-10-11T06:13:09.283Z,46.73
2022-10-11T06:15:39.095Z,43.43
2022-10-11T06:18:05.745Z,46.77
2022-10-11T06:20:32.611Z,35.40
2022-10-11T06:22:59.209Z,42.07
2022-10-11T06:25:25.934Z,35.57
2022-10-11T06:27:52.583Z,40.30
2022-10-11T06:30:19.272Z,40.53
2022-10-11T06:32:45.874Z,46.20
2022-10-11T06:35:13.047Z,46.97
2022-10-11T06:37:39.661Z,44.37
2022-10-11T06:40:06.914Z,42.80
2022-10-11T06:42:33.568Z,43.27
2022-10-11T06:45:00.290Z,43.83
2022-10-11T06:47:27.049Z,42.63
2022-10-11T06:49:53.712Z,43.43
2022-10-11T06:52:20.315Z,37.80
2022-10-11T06:54:46.967Z,44.97
2022-10-11T06:57:13.835Z,41.23
2022-10-11T06:59:40.458Z,45.47
2022-10-11T07:02:07.150Z,46.03
2022-10-11T07:04:33.970Z,36.77
2022-10-11T07:07:00.909Z,40.27
2022-10-11T07:09:27.824Z,37.80
2022-10-11T07:11:54.476Z,42.27
2022-10-11T07:14:21.283Z,38.70
2022-10-11T07:16:48.231Z,53.53
2022-10-11T07:19:14.918Z,45.57
2022-10-11T07:21:41.717Z,41.20
2022-10-11T07:24:08.465Z,39.57
2022-10-11T07:26:38.830Z,34.33
2022-10-11T07:29:09.536Z,33.10
2022-10-11T07:31:38.783Z,40.20
2022-10-11T07:34:05.437Z,35.30
2022-10-11T07:36:32.117Z,32.93
2022-10-11T07:38:58.737Z,30.83
2022-10-11T07:41:25.376Z,31.73
2022-10-11T07:43:52.093Z,30.33
2022-10-11T07:46:18.963Z,38.77
2022-10-11T07:48:45.604Z,38.07
2022-10-11T07:51:21.674Z,46.57
2022-10-11T07:53:51.000Z,36.63
2022-10-11T07:56:20.305Z,33.23
2022-10-11T07:58:51.587Z,34.77
2022-10-11T08:01:19.281Z,36.77
2022-10-11T08:03:46.510Z,33.40
2022-10-11T08:06:15.630Z,40.77
2022-10-11T08:08:42.463Z,33.47
2022-10-11T08:11:09.294Z,40.40
2022-10-11T08:13:35.982Z,38.63
2022-10-11T08:16:11.142Z,36.77
2022-10-11T08:18:37.992Z,37.93
2022-10-11T08:21:13.639Z,35.63
2022-10-11T08:23:40.378Z,33.97
2022-10-11T08:26:08.309Z,38.97
2022-10-11T08:28:35.996Z,33.17
2022-10-11T08:31:03.193Z,33.27
2022-10-11T08:33:30.938Z,32.37
2022-10-11T08:35:58.328Z,35.83
2022-10-11T08:38:24.978Z,28.63
2022-10-11T08:40:55.186Z,34.83
2022-10-11T08:43:32.920Z,31.00
2022-10-11T08:46:03.015Z,29.40
2022-10-11T08:48:37.296Z,33.07
2022-10-11T08:51:34.247Z,30.23
2022-10-11T08:54:07.931Z,26.30
2022-10-11T08:56:39.774Z,27.80
2022-10-11T08:59:12.083Z,25.93
2022-10-11T09:02:01.362Z,26.10
2022-10-11T09:04:38.576Z,25.23
2022-10-11T09:07:41.797Z,25.10
2022-10-11T09:10:34.769Z,26.03
2022-10-11T09:13:13.278Z,29.87
2022-10-11T09:15:46.843Z,31.57
2022-10-11T09:18:28.605Z,30.20
2022-10-11T09:21:08.289Z,27.63
2022-10-11T09:24:09.319Z,22.40
2022-10-11T09:27:00.840Z,32.93
2022-10-11T09:29:48.355Z,36.20
2022-10-11T09:32:20.809Z,25.17
2022-10-11T09:34:58.979Z,28.13
2022-10-11T09:37:32.643Z,31.00
2022-10-11T09:40:29.822Z,31.33
2022-10-11T09:42:56.428Z,31.00
2022-10-11T09:45:23.456Z,27.80
2022-10-11T09:47:52.561Z,24.87
2022-10-11T09:50:29.611Z,27.63
2022-10-11T09:52:59.930Z,28.10
2022-10-11T09:55:43.322Z,29.63
2022-10-11T09:58:26.977Z,30.30
2022-10-11T10:01:09.600Z,23.90
2022-10-11T10:03:46.442Z,31.43
2022-10-11T10:06:23.781Z,28.70
2022-10-11T10:08:50.691Z,32.67
2022-10-11T10:11:18.626Z,28.50
2022-10-11T10:13:56.136Z,25.43
2022-10-11T10:16:33.721Z,33.47
2022-10-11T10:19:07.127Z,31.30
2022-10-11T10:21:43.570Z,27.40
2022-10-11T10:24:19.571Z,33.07
2022-10-11T10:27:18.807Z,32.80
2022-10-11T10:30:06.322Z,26.77
2022-10-11T10:32:36.146Z,28.27
2022-10-11T10:35:26.243Z,32.53
2022-10-11T10:38:14.164Z,37.43
2022-10-11T10:40:43.594Z,30.60
2022-10-11T10:43:16.967Z,30.37
2022-10-11T10:45:55.600Z,29.03
2022-10-11T10:48:25.083Z,31.07
2022-10-11T10:51:29.486Z,28.33
2022-10-11T10:54:22.297Z,31.57
2022-10-11T10:57:02.974Z,24.13
2022-10-11T11:00:16.146Z,26.43
2022-10-11T11:02:57.226Z,27.03
2022-10-11T11:05:46.446Z,29.90
2022-10-11T11:08:19.910Z,23.77
2022-10-11T11:10:57.440Z,25.20
2022-10-11T11:13:50.227Z,23.80
2022-10-11T11:16:49.903Z,24.80
2022-10-11T11:19:16.468Z,21.30
2022-10-11T11:21:45.886Z,21.87
2022-10-11T11:24:34.500Z,22.67
2022-10-11T11:27:15.490Z,22.47
2022-10-11T11:29:55.856Z,23.77
2022-10-11T11:32:30.451Z,24.77
2022-10-11T11:35:20.001Z,23.87
2022-10-11T11:37:54.091Z,20.60
2022-10-11T11:40:40.761Z,21.03
2022-10-11T11:43:46.504Z,19.43
2022-10-11T11:46:18.621Z,17.37
2022-10-11T11:48:45.756Z,20.17
2022-10-11T11:51:18.594Z,22.13
2022-10-11T11:54:06.580Z,21.53
2022-10-11T11:56:42.343Z,21.73
2022-10-11T11:59:31.989Z,14.97
2022-10-11T12:02:26.771Z,18.93
2022-10-11T12:04:53.801Z,17.90
2022-10-11T12:07:23.394Z,16.07
2022-10-11T12:09:54.437Z,12.53
2022-10-11T12:12:33.981Z,15.53
2022-10-11T12:15:12.477Z,17.03
2022-10-11T12:17:57.624Z,11.73
2022-10-11T12:20:40.738Z,17.20
2022-10-11T12:23:29.429Z,18.30
2022-10-11T12:26:14.837Z,19.50
2022-10-11T12:28:41.908Z,22.30
2022-10-11T12:31:41.307Z,21.30
2022-10-11T12:34:10.371Z,18.53
2022-10-11T12:36:41.581Z,16.20
2022-10-11T12:39:20.318Z,13.33
2022-10-11T12:41:55.492Z,13.50
2022-10-11T12:44:28.598Z,12.90
2022-10-11T12:46:55.195Z,10.87
2022-10-11T12:49:33.602Z,14.27
2022-10-11T12:52:23.755Z,14.43
2022-10-11T12:55:17.753Z,13.63
2022-10-11T12:58:15.286Z,13.43
2022-10-11T13:00:51.651Z,12.33
2022-10-11T13:03:36.234Z,12.40
2022-10-11T13:06:24.844Z,14.87
2022-10-11T13:09:13.763Z,12.57
2022-10-11T13:11:54.144Z,14.87
2022-10-11T13:14:23.976Z,9.07
2022-10-11T13:17:03.349Z,10.77
2022-10-11T13:19:32.131Z,11.47
2022-10-11T13:22:05.678Z,13.20
2022-10-11T13:24:38.207Z,14.00
2022-10-11T13:27:06.283Z,14.03
2022-10-11T13:29:43.781Z,13.67
2022-10-11T13:32:23.764Z,14.47
2022-10-11T13:37:29.882Z,13.07
2022-10-11T13:39:57.380Z,13.50
2022-10-11T13:42:29.616Z,12.93
2022-10-11T13:44:56.918Z,14.40
2022-10-11T13:47:28.931Z,17.80
2022-10-11T13:50:01.744Z,18.17
2022-10-11T13:52:28.445Z,11.97
2022-10-11T13:55:09.873Z,14.07
2022-10-11T13:57:45.888Z,17.47
2022-10-11T14:00:15.298Z,14.63
2022-10-11T14:03:03.713Z,14.70
2022-10-11T14:05:37.411Z,10.67
2022-10-11T14:08:07.901Z,14.57
2022-10-11T14:10:34.923Z,12.80
2022-10-11T14:13:05.897Z,14.57
2022-10-11T14:15:36.217Z,13.13
2022-10-11T14:18:38.540Z,13.97
2022-10-11T14:21:36.860Z,10.63
2022-10-11T14:24:05.633Z,13.20
2022-10-11T14:26:38.216Z,12.70
2022-10-11T14:29:30.410Z,13.27
2022-10-11T14:32:03.883Z,13.77
2022-10-11T14:34:31.757Z,17.33
2022-10-11T14:36:58.778Z,9.73
2022-10-11T14:39:27.807Z,13.20
2022-10-11T14:41:55.065Z,21.47
2022-10-11T14:44:22.554Z,10.53
2022-10-11T14:46:50.638Z,13.87
2022-10-11T14:49:26.339Z,15.40
2022-10-11T14:51:54.677Z,12.80
2022-10-11T14:54:23.939Z,14.63
2022-10-11T14:56:52.435Z,9.17
2022-10-11T14:59:21.770Z,10.83
2022-10-11T15:01:53.544Z,9.23
2022-10-11T15:04:26.231Z,11.80
2022-10-11T15:06:54.668Z,13.20
2022-10-11T15:09:22.669Z,12.27
2022-10-11T15:11:50.845Z,15.47
2022-10-11T15:14:18.097Z,11.67
2022-10-11T15:16:44.896Z,12.07
2022-10-11T15:19:17.374Z,10.67
2022-10-11T15:21:44.299Z,11.70
2022-10-11T15:24:10.997Z,11.83
2022-10-11T15:26:37.745Z,13.47
2022-10-11T15:29:05.741Z,14.87
2022-10-11T15:31:32.603Z,13.83
2022-10-11T15:34:01.624Z,13.10
2022-10-11T15:36:29.506Z,13.73
2022-10-11T15:38:56.193Z,13.77
2022-10-11T15:41:23.887Z,13.97
2022-10-11T15:43:50.732Z,15.27
2022-10-11T15:46:22.586Z,9.63
2022-10-11T15:48:51.387Z,12.33
2022-10-11T15:51:18.374Z,15.87
2022-10-11T15:53:45.144Z,12.57
2022-10-11T15:56:18.703Z,9.73
2022-10-11T15:58:45.768Z,13.33
2022-10-11T16:01:15.965Z,13.97
2022-10-11T16:03:43.129Z,11.93
2022-10-11T16:06:09.984Z,12.90
2022-10-11T16:08:37.597Z,16.80
2022-10-11T16:11:05.590Z,10.43
2022-10-11T16:13:32.825Z,11.90
2022-10-11T16:16:02.173Z,13.40
2022-10-11T16:18:32.739Z,11.87
2022-10-11T16:21:05.252Z,15.57
2022-10-11T16:23:32.207Z,14.57
2022-10-11T16:26:01.975Z,12.50
2022-10-11T16:28:29.221Z,11.00
2022-10-11T16:30:55.924Z,12.17
2022-10-11T16:33:22.811Z,14.30
2022-10-11T16:35:49.583Z,13.10
2022-10-11T16:38:16.510Z,13.10
2022-10-11T16:40:43.407Z,14.20
2022-10-11T16:43:10.183Z,13.43
2022-10-11T16:45:37.136Z,12.63
2022-10-11T16:48:04.435Z,16.97
2022-10-11T16:50:34.424Z,15.43
2022-10-11T16:53:03.680Z,14.47
2022-10-11T16:55:30.336Z,11.77
2022-10-11T16:57:57.046Z,10.07
2022-10-11T17:00:23.734Z,10.67
2022-10-11T17:02:50.416Z,15.50
2022-10-11T17:05:17.422Z,15.03
2022-10-11T17:07:44.171Z,16.13
2022-10-11T17:10:10.974Z,14.60
2022-10-11T17:12:38.620Z,14.10
2022-10-11T17:15:06.349Z,11.50
2022-10-11T17:17:33.098Z,11.30
2022-10-11T17:19:59.822Z,14.13
2022-10-11T17:22:26.703Z,14.83
2022-10-11T17:24:53.501Z,22.23
2022-10-11T17:27:20.237Z,16.73
2022-10-11T17:29:47.258Z,12.00
2022-10-11T17:32:14.072Z,13.73
2022-10-11T17:34:40.774Z,12.93
2022-10-11T17:37:09.942Z,13.43
2022-10-11T17:39:36.823Z,12.03
2022-10-11T17:42:07.320Z,15.70
2022-10-11T17:44:35.315Z,13.67
2022-10-11T17:47:02.857Z,11.37
2022-10-11T17:49:30.062Z,12.90
2022-10-11T17:51:56.910Z,14.10
2022-10-11T17:54:24.295Z,13.30
2022-10-11T17:56:51.043Z,13.03
2022-10-11T17:59:21.436Z,11.87
2022-10-11T18:01:49.562Z,12.87
2022-10-11T18:04:18.806Z,15.27
2022-10-11T18:06:47.174Z,14.77
2022-10-11T18:09:16.010Z,14.87
2022-10-11T18:11:42.978Z,18.40
2022-10-11T18:14:10.187Z,14.50
2022-10-11T18:16:37.764Z,11.33
2022-10-11T18:19:06.944Z,11.33
2022-10-11T18:21:35.088Z,13.70
2022-10-11T18:24:03.945Z,12.87
2022-10-11T18:26:31.280Z,10.03
2022-10-11T18:28:58.887Z,14.70
2022-10-11T18:31:31.440Z,13.80
2022-10-11T18:33:58.164Z,14.63
2022-10-11T18:36:28.912Z,14.73
2022-10-11T18:38:58.597Z,10.77
2022-10-11T18:41:33.405Z,10.27
2022-10-11T18:44:03.241Z,11.93
2022-10-11T18:46:31.001Z,12.73
2022-10-11T18:48:58.773Z,15.53
2022-10-11T18:51:31.088Z,12.83
2022-10-11T18:54:00.824Z,14.40
2022-10-11T18:56:29.040Z,10.80
2022-10-11T18:58:57.075Z,13.93
2022-10-11T19:01:27.273Z,17.07
2022-10-11T19:03:59.086Z,15.63
2022-10-11T19:06:47.801Z,13.50
2022-10-11T19:09:18.800Z,15.20
2022-10-11T19:11:45.710Z,13.73
2022-10-11T19:14:15.308Z,15.37
2022-10-11T19:16:49.569Z,11.50
2022-10-11T19:19:17.909Z,13.57
2022-10-11T19:21:44.965Z,17.03
2022-10-11T19:24:11.659Z,15.57
2022-10-11T19:26:40.443Z,16.33
2022-10-11T19:29:15.260Z,16.97
2022-10-11T19:31:44.629Z,18.87
2022-10-11T19:34:11.949Z,12.33
2022-10-11T19:36:39.341Z,19.70
2022-10-11T19:39:06.515Z,18.87
2022-10-11T19:41:33.535Z,22.60
2022-10-11T19:44:00.223Z,21.83
2022-10-11T19:46:44.848Z,13.80
2022-10-11T19:49:17.440Z,16.20
2022-10-11T19:51:44.275Z,14.20
2022-10-11T19:54:13.645Z,17.37
2022-10-11T19:56:40.869Z,15.00
2022-10-11T19:59:07.603Z,14.97
2022-10-11T20:01:35.812Z,16.47
2022-10-11T20:04:08.633Z,17.73
2022-10-11T20:06:38.960Z,14.80
2022-10-11T20:11:54.295Z,12.27
2022-10-11T20:14:21.090Z,15.03
2022-10-11T20:16:50.185Z,14.40
2022-10-11T20:19:17.561Z,14.80
2022-10-11T20:21:45.111Z,11.50
2022-10-11T20:24:12.071Z,16.93
2022-10-11T20:26:39.323Z,22.17
2022-10-11T20:29:06.496Z,15.57
2022-10-11T20:31:37.945Z,13.10
2022-10-11T20:34:07.109Z,15.77
2022-10-11T20:36:35.897Z,17.73
2022-10-11T20:39:04.362Z,19.33
2022-10-11T20:41:34.299Z,21.37
2022-10-11T20:44:02.116Z,18.77
2022-10-11T20:46:31.601Z,15.27
2022-10-11T20:49:19.854Z,15.27
2022-10-11T20:51:46.709Z,13.23
2022-10-11T20:54:13.678Z,16.83
2022-10-11T20:56:41.086Z,12.97
2022-10-11T20:59:08.535Z,13.57
2022-10-11T21:01:40.549Z,17.23
2022-10-11T21:04:10.224Z,17.30
2022-10-11T21:06:36.834Z,16.53
2022-10-11T21:09:03.495Z,16.27
2022-10-11T21:11:32.200Z,13.37
2022-10-11T21:14:00.939Z,12.07
2022-10-11T21:16:28.220Z,14.97
2022-10-11T21:18:57.296Z,19.03
2022-10-11T21:21:25.281Z,16.57
2022-10-11T21:24:02.312Z,15.17
2022-10-11T21:26:30.038Z,17.87
2022-10-11T21:28:58.995Z,17.30
2022-10-11T21:31:29.586Z,15.10
2022-10-11T21:33:59.841Z,20.43
2022-10-11T21:36:26.598Z,17.77
2022-10-11T21:38:54.841Z,19.07
2022-10-11T21:41:25.398Z,20.30
2022-10-11T21:43:52.864Z,18.07
2022-10-11T21:46:41.629Z,17.53
2022-10-11T21:49:11.918Z,17.03
2022-10-11T21:51:38.618Z,23.43
2022-10-11T21:54:05.532Z,14.20
2022-10-11T21:56:32.254Z,13.10
2022-10-11T21:58:58.954Z,14.87
2022-10-11T22:01:25.627Z,15.77
2022-10-11T22:03:55.330Z,14.03
2022-10-11T22:06:22.370Z,16.63
2022-10-11T22:08:49.958Z,15.63
2022-10-11T22:11:17.076Z,16.73
2022-10-11T22:13:43.731Z,19.97
2022-10-11T22:16:12.535Z,16.47
2022-10-11T22:18:39.608Z,19.97
2022-10-11T22:21:13.555Z,19.20
2022-10-11T22:23:41.520Z,20.03
2022-10-11T22:26:11.139Z,21.60
2022-10-11T22:28:38.040Z,19.23
2022-10-11T22:31:06.380Z,18.93
2022-10-11T22:33:33.349Z,17.73
2022-10-11T22:36:02.861Z,21.30
2022-10-11T22:38:30.000Z,17.87
2022-10-11T22:40:58.613Z,22.90
2022-10-11T22:43:25.231Z,15.73
2022-10-11T22:45:51.883Z,14.17
2022-10-11T22:48:18.606Z,18.67
2022-10-11T22:50:45.249Z,17.10
2022-10-11T22:53:13.621Z,13.93
2022-10-11T22:55:40.502Z,20.27
2022-10-11T22:58:07.254Z,17.43
2022-10-11T23:00:34.098Z,15.17
2022-10-11T23:03:00.865Z,16.00
2022-10-11T23:05:27.461Z,17.67
2022-10-11T23:07:54.218Z,15.17
2022-10-11T23:10:20.875Z,15.57
2022-10-11T23:12:47.522Z,16.07
2022-10-11T23:15:15.236Z,14.10
2022-10-11T23:17:42.382Z,16.53
2022-10-11T23:20:09.695Z,18.00
2022-10-11T23:22:36.280Z,18.43
2022-10-11T23:25:03.220Z,14.43
2022-10-11T23:27:30.264Z,17.10
2022-10-11T23:29:56.966Z,15.87
2022-10-11T23:32:23.826Z,22.37
2022-10-11T23:34:51.466Z,17.37
2022-10-11T23:37:18.299Z,16.17
2022-10-11T23:39:45.163Z,16.60
2022-10-11T23:42:11.797Z,16.23
2022-10-11T23:44:38.406Z,13.77
2022-10-11T23:47:04.999Z,17.37
2022-10-11T23:49:31.663Z,15.83
2022-10-11T23:51:58.346Z,21.90
2022-10-11T23:54:25.007Z,19.70
2022-10-11T23:56:51.640Z,24.47
2022-10-11T23:59:18.256Z,18.13
